Summerfield, Florida
Current Conditions -  °F | °C
As of 12:50 PM on Friday 19 Dec 2014 (Local Time) from KOCF Reporting Station
Clear Clear  
Wind Chill: 66°   Ceiling: Unl
Heat Index: 66°   Visibility: 10mi
Dew Point: 37°   Wind: 6mph
Humidity: 35%   Direction: 40°NE
Pressure: 30.11"   Gusts: NA
Location:  29.01°N, 82.03°W
Report Text: KOCF 191750Z 04005KT 10SM CLR 19/03 A3011
Loading
Personal Weather Stations






























Interactive Weather Map New forecast layout! Learn more

10-Day Weather Forecast

Advertisements
Track Severe Weather on mobile